Terminal Aerodrome Forecast
Issued by NWS

Home | Current Version | Previous Version | Text Only | Print | Product List | Glossary On
Versions: 1 2 3 4 5 6 7 8 9 10 11 12 13 14 15 16 17 18 19 20 21
000
FTAK31 PANC 250523
TAFADL
TAF
PADL 250523Z 2506/2606 21011G22KT P6SM SCT025 BKN030
      TEMPO 2506/2510 20011KT OVC020
     FM251000 20011KT P6SM -SHRA OVC020
     FM252100 21011KT P6SM SCT020 OVC050=

USA.gov is the U.S. government's official web portal to all federal, state and local government web resources and services.